Red Lion, Pennsylvania
Current Conditions -  °F | °C
As of 7:53 PM on Monday 20 Oct 2014 (Local Time) from KTHV Reporting Station
Overcast Overcast  
Wind Chill: 53°   Ceiling: 8000
Heat Index: 53°   Visibility: 10mi
Dew Point: 46°   Wind: 0mph
Humidity: 77%   Direction: NA
Pressure: 29.94"   Gusts: NA
Location:  39.9°N, 76.61°W
Report Text: KTHV 202353Z AUTO 00000KT 10SM BKN080 OVC100 12/08 A2994 RMK AO2 SLP144 T01170078 10178 20100 56001
Loading
Personal Weather Stations






























Interactive Weather Map
Tropical Storm Tracking
New forecast layout! Learn more

10-Day Weather Forecast

Advertisements
Track Severe Weather on mobile